Veidnes — LLSD — position and weather

sailwx.info

Track history (hours):
 
Tides and Currents Weather Stations Pressure Air Temp Water Temp Dewpoint Dewpoint Depression Visibility Wind Speed Wind Dir Waves Ship Positions

Veidnes

Last reported at 2016-Jan-28 23:28 UTC. Time now 2016-Feb-11 15:05 UTC.
Position N 67°39' E 014°51'.
Warning: this ship's position is 13 days out of date.

Length 51 m; draft 5 m.

Type: Cargo ship. MMSI: 259237000.

Date/timePositionNaut miles runAvg speedWind from/ knotsBaromVisibWave heightAir tempDewpointWater temp
2016-Jan-28 23:28N 67°39' E 014°51'9 1.4
2016-Jan-28 17:17N 67°43' E 014°31'11 0.6
2016-Jan-27 22:25N 67°40' E 014°60'2 0.1
2016-Jan-26 22:24N 67°39' E 014°55'  
2016-Jan-22 21:27N 67°39' E 014°56'13 0.5
2016-Jan-21 19:09N 67°31' E 014°30'6 9.6
2016-Jan-21 18:34N 67°25' E 014°27'10 9.7
2016-Jan-21 17:33N 67°17' E 014°15'8 7.7
2016-Jan-21 16:34N 67°15' E 014°34'7 6.7
2016-Jan-21 15:33N 67°15' E 014°51'6 6.5
2016-Jan-21 14:34N 67°14' E 015°08'4 4.1
2016-Jan-21 13:34N 67°12' E 015°17'0 0.3
2016-Jan-21 12:33N 67°12' E 015°17'1110.1
2016-Jan-21 11:26N 67°15' E 014°48'910.0
2016-Jan-21 10:34N 67°15' E 014°25'2 2.4
2016-Jan-21 09:30N 67°17' E 014°23'0 0.0
2016-Jan-21 08:33N 67°17' E 014°23'0 0.0
2016-Jan-21 07:33N 67°17' E 014°23'0 0.0
2016-Jan-21 06:33N 67°17' E 014°23'0 0.0
2016-Jan-21 05:33N 67°17' E 014°23'0 0.0
2016-Jan-21 04:33N 67°17' E 014°23'0 0.0
2016-Jan-21 03:33N 67°17' E 014°23'0 0.0
2016-Jan-21 02:33N 67°17' E 014°23'0 0.0
2016-Jan-21 01:33N 67°17' E 014°23'0 0.0
2016-Jan-21 00:33N 67°17' E 014°23'0 0.0
2016-Jan-20 23:33N 67°17' E 014°23'0 0.0
2016-Jan-20 22:34N 67°17' E 014°23'0 0.0
2016-Jan-20 21:33N 67°17' E 014°23'0 0.0
2016-Jan-20 20:34N 67°17' E 014°23'0 0.5
2016-Jan-20 19:34N 67°18' E 014°22'1111.3
2016-Jan-20 18:33N 67°29' E 014°28'2 0.1
2016-Jan-19 19:23N 67°31' E 014°29'8 9.5
2016-Jan-19 18:33N 67°23' E 014°26'6 5.8
2016-Jan-19 17:34N 67°17' E 014°24'0 0.0
2016-Jan-19 16:33N 67°17' E 014°24'1 0.9
2016-Jan-19 15:33N 67°17' E 014°22'5 4.8
2016-Jan-19 14:33N 67°15' E 014°33'8 7.6
2016-Jan-19 13:32N 67°15' E 014°52'8 7.9
2016-Jan-19 12:33N 67°14' E 015°12'2 2.4
2016-Jan-19 11:33N 67°12' E 015°16'0 0.1
2016-Jan-19 10:33N 67°12' E 015°16'11 9.0
2016-Jan-19 09:20N 67°15' E 014°49'7 9.2
2016-Jan-19 08:33N 67°15' E 014°30'4 3.7
2016-Jan-19 07:33N 67°17' E 014°23'0 0.0
2016-Jan-19 06:33N 67°17' E 014°23'1 0.8
2016-Jan-19 05:33N 67°18' E 014°22'1110.8
2016-Jan-19 04:33N 67°28' E 014°29'  
Track history (hours):
 
Tides and Currents Weather Stations Pressure Air Temp Water Temp Dewpoint Dewpoint Depression Visibility Wind Speed Wind Dir Waves Ship Positions

Veidnes

Last reported at 2016-Jan-28 23:28 UTC. Time now 2016-Feb-11 15:05 UTC.
Position N 67°39' E 014°51'.
Warning: this ship's position is 13 days out of date.

Length 51 m; draft 5 m.

Type: Cargo ship. MMSI: 259237000.

Date/timePositionNaut miles runAvg speedWind from/ knotsBaromVisibWave heightAir tempDewpointWater temp
2016-Jan-28 23:28N 67°39' E 014°51'9 1.4
2016-Jan-28 17:17N 67°43' E 014°31'11 0.6
2016-Jan-27 22:25N 67°40' E 014°60'2 0.1
2016-Jan-26 22:24N 67°39' E 014°55'  
2016-Jan-22 21:27N 67°39' E 014°56'13 0.5
2016-Jan-21 19:09N 67°31' E 014°30'6 9.6
2016-Jan-21 18:34N 67°25' E 014°27'10 9.7
2016-Jan-21 17:33N 67°17' E 014°15'8 7.7
2016-Jan-21 16:34N 67°15' E 014°34'7 6.7
2016-Jan-21 15:33N 67°15' E 014°51'6 6.5
2016-Jan-21 14:34N 67°14' E 015°08'4 4.1
2016-Jan-21 13:34N 67°12' E 015°17'0 0.3
2016-Jan-21 12:33N 67°12' E 015°17'1110.1
2016-Jan-21 11:26N 67°15' E 014°48'910.0
2016-Jan-21 10:34N 67°15' E 014°25'2 2.4
2016-Jan-21 09:30N 67°17' E 014°23'0 0.0
2016-Jan-21 08:33N 67°17' E 014°23'0 0.0
2016-Jan-21 07:33N 67°17' E 014°23'0 0.0
2016-Jan-21 06:33N 67°17' E 014°23'0 0.0
2016-Jan-21 05:33N 67°17' E 014°23'0 0.0
2016-Jan-21 04:33N 67°17' E 014°23'0 0.0
2016-Jan-21 03:33N 67°17' E 014°23'0 0.0
2016-Jan-21 02:33N 67°17' E 014°23'0 0.0
2016-Jan-21 01:33N 67°17' E 014°23'0 0.0
2016-Jan-21 00:33N 67°17' E 014°23'0 0.0
2016-Jan-20 23:33N 67°17' E 014°23'0 0.0
2016-Jan-20 22:34N 67°17' E 014°23'0 0.0
2016-Jan-20 21:33N 67°17' E 014°23'0 0.0
2016-Jan-20 20:34N 67°17' E 014°23'0 0.5
2016-Jan-20 19:34N 67°18' E 014°22'1111.3
2016-Jan-20 18:33N 67°29' E 014°28'2 0.1
2016-Jan-19 19:23N 67°31' E 014°29'8 9.5
2016-Jan-19 18:33N 67°23' E 014°26'6 5.8
2016-Jan-19 17:34N 67°17' E 014°24'0 0.0
2016-Jan-19 16:33N 67°17' E 014°24'1 0.9
2016-Jan-19 15:33N 67°17' E 014°22'5 4.8
2016-Jan-19 14:33N 67°15' E 014°33'8 7.6
2016-Jan-19 13:32N 67°15' E 014°52'8 7.9
2016-Jan-19 12:33N 67°14' E 015°12'2 2.4
2016-Jan-19 11:33N 67°12' E 015°16'0 0.1
2016-Jan-19 10:33N 67°12' E 015°16'11 9.0
2016-Jan-19 09:20N 67°15' E 014°49'7 9.2
2016-Jan-19 08:33N 67°15' E 014°30'4 3.7
2016-Jan-19 07:33N 67°17' E 014°23'0 0.0
2016-Jan-19 06:33N 67°17' E 014°23'1 0.8
2016-Jan-19 05:33N 67°18' E 014°22'1110.8
2016-Jan-19 04:33N 67°28' E 014°29'  

Dump ship's entire track history